createdAt,value
2019-03-13T00:00:08.277Z,43.33
2019-03-13T00:05:13.227Z,40.03
2019-03-13T00:10:18.231Z,43.53
2019-03-13T00:15:23.066Z,91.30
2019-03-13T00:20:27.972Z,44.83
2019-03-13T00:25:32.822Z,38.20
2019-03-13T00:30:37.727Z,45.90
2019-03-13T00:35:42.658Z,70.37
2019-03-13T00:40:47.507Z,36.10
2019-03-13T00:45:52.350Z,41.10
2019-03-13T00:50:57.827Z,42.57
2019-03-13T00:56:02.629Z,38.30
2019-03-13T01:01:11.808Z,38.67
2019-03-13T01:06:21.241Z,34.93
2019-03-13T01:11:27.445Z,33.90
2019-03-13T01:16:32.411Z,35.20
2019-03-13T01:21:37.341Z,33.03
2019-03-13T01:26:42.187Z,27.57
2019-03-13T01:31:48.594Z,29.53
2019-03-13T01:36:53.417Z,33.00
2019-03-13T01:41:58.266Z,34.63
2019-03-13T01:47:03.115Z,23.93
2019-03-13T01:52:07.940Z,25.07
2019-03-13T01:57:14.113Z,25.97
2019-03-13T02:02:18.950Z,28.37
2019-03-13T02:07:24.883Z,27.20
2019-03-13T02:12:31.192Z,27.63
2019-03-13T02:17:36.893Z,16.80
2019-03-13T02:22:42.006Z,24.60
2019-03-13T02:27:48.772Z,22.63
2019-03-13T02:32:54.303Z,22.30
2019-03-13T02:37:59.534Z,24.20
2019-03-13T02:43:04.757Z,20.07
2019-03-13T02:48:10.097Z,22.53
2019-03-13T02:53:16.248Z,20.80
2019-03-13T02:58:22.192Z,22.90
2019-03-13T03:03:29.668Z,20.00
2019-03-13T03:08:34.598Z,18.80
2019-03-13T03:13:39.431Z,20.33
2019-03-13T03:18:44.421Z,17.97
2019-03-13T03:23:49.386Z,19.83
2019-03-13T03:28:54.084Z,26.07
2019-03-13T03:34:01.936Z,30.50
2019-03-13T03:39:07.044Z,18.07
2019-03-13T03:44:11.878Z,20.13
2019-03-13T03:49:16.713Z,23.60
2019-03-13T03:54:21.561Z,19.53
2019-03-13T03:59:26.388Z,19.90
2019-03-13T04:04:31.227Z,21.87
2019-03-13T04:09:36.066Z,17.03
2019-03-13T04:14:40.817Z,18.87
2019-03-13T04:19:45.593Z,23.57
2019-03-13T04:24:50.520Z,25.30
2019-03-13T04:29:55.283Z,23.83
2019-03-13T04:35:00.033Z,21.13
2019-03-13T04:40:07.061Z,18.90
2019-03-13T04:45:12.353Z,17.67
2019-03-13T04:50:17.392Z,20.10
2019-03-13T04:55:22.232Z,20.10
2019-03-13T05:00:27.056Z,15.67
2019-03-13T05:05:45.290Z,20.73
2019-03-13T05:10:51.403Z,21.00
2019-03-13T05:15:56.241Z,16.60
2019-03-13T05:21:01.497Z,27.47
2019-03-13T05:26:06.424Z,28.77
2019-03-13T05:31:11.268Z,23.13
2019-03-13T05:36:17.005Z,20.17
2019-03-13T05:41:22.437Z,21.00
2019-03-13T05:46:27.315Z,25.97
2019-03-13T05:51:32.137Z,18.13
2019-03-13T05:56:36.978Z,15.33
2019-03-13T06:01:41.814Z,17.80
2019-03-13T06:06:46.638Z,15.47
2019-03-13T06:11:51.464Z,17.50
2019-03-13T06:16:56.317Z,14.90
2019-03-13T06:22:01.350Z,16.50
2019-03-13T06:27:06.734Z,46.10
2019-03-13T06:32:11.556Z,43.77
2019-03-13T06:37:16.321Z,58.47
2019-03-13T06:42:21.166Z,316.70
2019-03-13T06:47:26.013Z,153.33
2019-03-13T06:52:31.805Z,346.93
2019-03-13T06:57:37.319Z,405.73
2019-03-13T07:02:46.538Z,76.73
2019-03-13T07:07:52.934Z,107.13
2019-03-13T07:13:11.348Z,58.63
2019-03-13T07:18:26.968Z,72.93
2019-03-13T07:23:43.692Z,68.93
2019-03-13T07:28:52.492Z,36.03
2019-03-13T07:33:58.371Z,21.23
2019-03-13T07:39:07.786Z,14.13
2019-03-13T07:44:32.409Z,13.90
2019-03-13T07:49:54.924Z,24.47
2019-03-13T07:55:10.267Z,15.23
2019-03-13T08:00:16.734Z,13.13
2019-03-13T08:05:32.345Z,12.37
2019-03-13T08:10:50.805Z,13.43
2019-03-13T08:15:59.844Z,10.60
2019-03-13T08:21:21.107Z,14.37
2019-03-13T08:26:33.300Z,18.60
2019-03-13T08:31:48.711Z,16.53
2019-03-13T08:37:11.544Z,23.80
2019-03-13T08:42:18.016Z,24.43
2019-03-13T08:47:27.165Z,19.97
2019-03-13T08:52:33.655Z,24.83
2019-03-13T08:57:42.882Z,26.67
2019-03-13T09:03:01.294Z,22.90
2019-03-13T09:08:07.775Z,18.67
2019-03-13T09:13:14.251Z,20.80
2019-03-13T09:18:20.657Z,22.30
2019-03-13T09:23:43.468Z,26.57
2019-03-13T09:29:01.748Z,22.57
2019-03-13T09:34:17.258Z,16.67
2019-03-13T09:39:26.231Z,17.23
2019-03-13T09:44:32.938Z,18.10
2019-03-13T09:49:55.270Z,12.87
2019-03-13T09:55:10.512Z,11.23
2019-03-13T10:00:32.870Z,10.37
2019-03-13T10:05:55.375Z,55.90
2019-03-13T10:11:04.623Z,12.23
2019-03-13T10:16:23.162Z,13.77
2019-03-13T10:21:29.632Z,40.57
2019-03-13T10:26:41.974Z,28.63
2019-03-13T10:32:04.596Z,12.80
2019-03-13T10:37:16.941Z,8.87
2019-03-13T10:42:23.427Z,8.30
2019-03-13T10:47:29.907Z,9.73
2019-03-13T10:52:36.379Z,13.37
2019-03-13T10:57:48.547Z,10.20
2019-03-13T11:03:13.137Z,11.30
2019-03-13T11:08:22.412Z,6.90
2019-03-13T11:13:28.889Z,7.77
2019-03-13T11:18:38.145Z,12.23
2019-03-13T11:23:44.609Z,8.93
2019-03-13T11:29:05.885Z,7.50
2019-03-13T11:34:12.356Z,4.50
2019-03-13T11:39:18.838Z,4.07
2019-03-13T11:44:28.031Z,5.17
2019-03-13T11:49:34.516Z,21.70
2019-03-13T11:54:49.727Z,8.87
2019-03-13T11:59:56.195Z,5.43
2019-03-13T12:05:02.687Z,6.10
2019-03-13T12:10:25.433Z,10.20
2019-03-13T12:15:31.884Z,3.60
2019-03-13T12:20:41.238Z,3.20
2019-03-13T12:25:47.812Z,111.33
2019-03-13T12:31:09.322Z,7.43
2019-03-13T12:36:32.050Z,13.90
2019-03-13T12:41:38.584Z,9.17
2019-03-13T12:46:54.085Z,58.97
2019-03-13T12:52:09.577Z,3.80
2019-03-13T12:57:30.908Z,3.87
2019-03-13T13:02:46.388Z,4.97
2019-03-13T13:07:55.897Z,5.47
2019-03-13T13:13:08.746Z,3.60
2019-03-13T13:18:31.452Z,12.23
2019-03-13T13:23:36.285Z,6.27
2019-03-13T13:28:41.150Z,4.97
2019-03-13T13:33:46.246Z,8.93
2019-03-13T13:38:51.084Z,3.73
2019-03-13T13:43:55.933Z,3.27
2019-03-13T13:49:00.768Z,8.33
2019-03-13T13:54:05.692Z,49.13
2019-03-13T13:59:10.527Z,12.57
2019-03-13T14:04:15.467Z,4.33
2019-03-13T14:09:21.314Z,1.70
2019-03-13T14:14:27.864Z,4.30
2019-03-13T14:19:32.891Z,2.90
2019-03-13T14:24:37.792Z,25.33
2019-03-13T14:29:42.594Z,5.10
2019-03-13T14:34:47.713Z,13.43
2019-03-13T14:39:52.536Z,8.40
2019-03-13T14:44:57.379Z,5.10
2019-03-13T14:50:02.303Z,4.00
2019-03-13T14:55:10.019Z,5.17
2019-03-13T15:00:25.419Z,5.03
2019-03-13T15:05:31.743Z,11.20
2019-03-13T15:10:36.573Z,3.87
2019-03-13T15:15:41.393Z,6.67
2019-03-13T15:20:46.222Z,5.93
2019-03-13T15:25:51.055Z,5.47
2019-03-13T15:30:55.988Z,4.70
2019-03-13T15:36:00.946Z,7.17
2019-03-13T15:41:06.052Z,7.30
2019-03-13T15:46:10.872Z,8.97
2019-03-13T15:51:15.711Z,6.77
2019-03-13T15:56:20.542Z,8.60
2019-03-13T16:01:25.374Z,5.53
2019-03-13T16:06:30.208Z,8.93
2019-03-13T16:11:35.078Z,9.70
2019-03-13T16:16:39.983Z,8.73
2019-03-13T16:21:45.425Z,11.43
2019-03-13T16:26:50.261Z,7.93
2019-03-13T16:31:55.199Z,11.07
2019-03-13T16:37:00.226Z,14.30
2019-03-13T16:42:05.068Z,5.17
2019-03-13T16:47:09.925Z,4.80
2019-03-13T16:52:14.848Z,10.67
2019-03-13T16:57:19.709Z,10.57
2019-03-13T17:02:24.584Z,644.97
2019-03-13T17:07:29.417Z,251.10
2019-03-13T17:12:34.500Z,443.50
2019-03-13T17:17:39.404Z,230.53
2019-03-13T17:22:45.207Z,165.63
2019-03-13T17:27:50.383Z,102.50
2019-03-13T17:32:55.275Z,158.83
2019-03-13T17:38:00.187Z,282.90
2019-03-13T17:43:05.033Z,325.07
2019-03-13T17:48:09.891Z,45.00
2019-03-13T17:53:14.827Z,31.07
2019-03-13T17:58:22.520Z,31.67
2019-03-13T18:03:26.417Z,22.53
2019-03-13T18:08:34.205Z,80.93
2019-03-13T18:13:39.701Z,24.27
2019-03-13T18:18:44.743Z,131.33
2019-03-13T18:23:49.745Z,297.00
2019-03-13T18:28:54.798Z,151.27
2019-03-13T18:33:59.706Z,485.07
2019-03-13T18:39:05.484Z,436.97
2019-03-13T18:44:10.334Z,189.53
2019-03-13T18:49:15.174Z,66.17
2019-03-13T18:54:20.021Z,151.93
2019-03-13T18:59:24.857Z,26.70
2019-03-13T19:04:29.711Z,263.60
2019-03-13T19:09:40.583Z,109.67
2019-03-13T19:14:47.219Z,49.43
2019-03-13T19:19:54.159Z,80.83
2019-03-13T19:24:58.991Z,116.37
2019-03-13T19:30:05.907Z,97.60
2019-03-13T19:35:10.750Z,258.97
2019-03-13T19:40:18.367Z,189.03
2019-03-13T19:45:26.192Z,48.83
2019-03-13T19:50:31.292Z,37.57
2019-03-13T19:55:36.498Z,168.30
2019-03-13T20:00:41.347Z,61.13
2019-03-13T20:05:46.759Z,129.60
2019-03-13T20:10:51.651Z,226.90
2019-03-13T20:15:56.610Z,29.87
2019-03-13T20:21:01.455Z,58.77
2019-03-13T20:26:06.572Z,29.20
2019-03-13T20:31:11.601Z,191.83
2019-03-13T20:36:16.453Z,36.10
2019-03-13T20:41:21.483Z,122.80
2019-03-13T20:46:26.333Z,185.90
2019-03-13T20:51:31.179Z,49.37
2019-03-13T20:56:36.019Z,137.53
2019-03-13T21:01:42.015Z,117.47
2019-03-13T21:06:47.014Z,75.10
2019-03-13T21:11:51.855Z,128.70
2019-03-13T21:16:56.780Z,59.27
2019-03-13T21:22:04.474Z,51.03
2019-03-13T21:27:08.358Z,61.73
2019-03-13T21:32:13.202Z,82.37
2019-03-13T21:37:18.046Z,146.60
2019-03-13T21:42:23.215Z,96.30
2019-03-13T21:47:28.158Z,99.97
2019-03-13T21:52:33.105Z,55.20
2019-03-13T21:57:37.993Z,44.47
2019-03-13T22:02:42.834Z,27.90
2019-03-13T22:07:47.771Z,26.50
2019-03-13T22:12:52.608Z,42.57
2019-03-13T22:17:57.471Z,15.67
2019-03-13T22:23:02.318Z,20.37
2019-03-13T22:28:07.178Z,18.23
2019-03-13T22:33:12.003Z,22.23
2019-03-13T22:38:16.845Z,19.37
2019-03-13T22:43:21.964Z,29.17
2019-03-13T22:48:26.859Z,29.27
2019-03-13T22:53:31.812Z,274.17
2019-03-13T22:58:36.775Z,86.80
2019-03-13T23:03:41.627Z,23.97
2019-03-13T23:08:46.487Z,45.07
2019-03-13T23:13:51.455Z,258.23
2019-03-13T23:18:56.313Z,375.43
2019-03-13T23:24:01.258Z,323.73
2019-03-13T23:29:06.110Z,241.37
2019-03-13T23:34:11.070Z,294.73
2019-03-13T23:39:16.012Z,168.40
2019-03-13T23:44:20.940Z,189.13
2019-03-13T23:49:25.781Z,419.13
2019-03-13T23:54:30.630Z,175.87
2019-03-13T23:59:35.477Z,163.53
